Time;durP1;ratioP1;P1;durP2;ratioP2;P2;SDS_P1;SDS_P2;PMS_P1;PMS_P2;Temp;Humidity;BMP_temperature;BMP_pressure;BME280_temperature;BME280_humidity;BME280_pressure;Samples;Min_cycle;Max_cycle;Signal;HPM_P1;HPM_P2
2022/06/23 00:00:59;;;;;;;3.75;2.20;;;16.90;99.90;;;;;;2585890;54;20283;31
2022/06/23 00:03:37;;;;;;;7.15;2.30;;;17.00;99.90;;;;;;2585697;54;19942;31
2022/06/23 00:06:11;;;;;;;4.80;2.90;;;16.80;99.90;;;;;;2585340;54;21030;31
2022/06/23 00:08:47;;;;;;;5.30;2.75;;;16.80;99.90;;;;;;2585848;54;20875;31
2022/06/23 00:11:25;;;;;;;11.55;3.10;;;16.80;99.90;;;;;;2604233;46;20947;31
2022/06/23 00:14:13;;;;;;;4.45;2.90;;;16.80;99.90;;;;;;2604254;46;20788;31
2022/06/23 00:16:47;;;;;;;4.40;2.90;;;16.70;99.90;;;;;;2586016;54;20925;31
2022/06/23 00:19:21;;;;;;;6.10;3.05;;;16.60;99.90;;;;;;2586039;54;20050;31
2022/06/23 00:21:55;;;;;;;8.00;2.75;;;16.50;99.90;;;;;;2585605;54;20862;31
2022/06/23 00:24:28;;;;;;;6.07;2.70;;;16.50;99.90;;;;;;2604274;46;21170;31
2022/06/23 00:27:02;;;;;;;5.20;2.50;;;16.40;99.90;;;;;;2585771;54;20799;31
2022/06/23 00:29:38;;;;;;;5.60;2.95;;;16.40;99.90;;;;;;2585596;54;21001;31
2022/06/23 00:32:12;;;;;;;6.55;3.10;;;16.30;99.90;;;;;;2585805;54;20779;31
2022/06/23 00:34:47;;;;;;;3.80;2.95;;;16.30;99.90;;;;;;2683844;39;22504;31
2022/06/23 00:37:21;;;;;;;4.60;3.20;;;16.30;99.90;;;;;;2585620;54;20045;31
2022/06/23 00:39:57;;;;;;;5.00;2.90;;;16.20;99.90;;;;;;2585803;54;20906;31
2022/06/23 00:42:31;;;;;;;4.05;2.05;;;16.20;99.90;;;;;;2586070;54;22524;31
2022/06/23 00:45:14;;;;;;;4.57;2.80;;;16.10;99.90;;;;;;2585895;54;20804;31
2022/06/23 00:47:50;;;;;;;5.22;2.83;;;16.00;99.90;;;;;;2585623;54;20788;31
2022/06/23 00:50:28;;;;;;;7.33;3.00;;;16.10;99.90;;;;;;2585342;54;20049;31
2022/06/23 00:53:04;;;;;;;6.55;2.83;;;16.00;99.90;;;;;;2585467;54;21353;31
2022/06/23 00:55:47;;;;;;;5.20;2.70;;;16.00;99.90;;;;;;2585641;54;21435;31
2022/06/23 00:58:26;;;;;;;6.38;2.78;;;16.00;99.90;;;;;;2585910;54;20929;31
2022/06/23 01:00:58;;;;;;;6.25;2.50;;;16.00;99.90;;;;;;2585817;54;20906;31
2022/06/23 01:03:43;;;;;;;6.68;3.00;;;16.00;99.90;;;;;;2604307;46;20947;31
2022/06/23 01:06:20;;;;;;;4.25;2.58;;;16.00;99.90;;;;;;2585712;54;20034;31
2022/06/23 01:08:55;;;;;;;5.55;3.00;;;16.00;99.90;;;;;;2585632;54;20034;31
2022/06/23 01:11:27;;;;;;;4.07;2.60;;;15.90;99.90;;;;;;2585617;54;20809;31
2022/06/23 01:14:06;;;;;;;5.95;2.90;;;15.90;99.90;;;;;;2585408;54;20762;31
2022/06/23 01:16:43;;;;;;;4.40;3.35;;;15.90;99.90;;;;;;2585672;54;20601;31
2022/06/23 01:19:42;;;;;;;5.68;3.20;;;15.90;99.90;;;;;;2585467;54;20798;31
2022/06/23 01:22:22;;;;;;;4.75;2.83;;;15.80;99.90;;;;;;2585517;54;20032;31
2022/06/23 01:25:02;;;;;;;5.57;3.13;;;15.80;99.90;;;;;;2585448;54;20807;31
2022/06/23 01:27:55;;;;;;;7.25;2.90;;;15.70;99.90;;;;;;2603757;46;20914;31
2022/06/23 01:30:29;;;;;;;6.60;2.90;;;15.70;99.90;;;;;;2585563;54;20993;31
2022/06/23 01:33:07;;;;;;;8.82;3.13;;;15.60;99.90;;;;;;2585588;54;20030;31
2022/06/23 01:35:43;;;;;;;6.05;2.67;;;15.60;99.90;;;;;;2603925;46;20033;31
2022/06/23 01:38:20;;;;;;;8.90;3.35;;;15.50;99.90;;;;;;2585276;54;20802;31
2022/06/23 01:40:56;;;;;;;8.18;3.60;;;15.50;99.90;;;;;;2585601;54;20030;31
2022/06/23 01:43:34;;;;;;;5.13;3.15;;;15.40;99.90;;;;;;2683295;39;21015;31
2022/06/23 01:46:11;;;;;;;4.82;3.35;;;15.40;99.90;;;;;;2585492;54;20129;31
2022/06/23 01:48:57;;;;;;;6.18;3.80;;;15.30;99.90;;;;;;2585718;54;22441;31
2022/06/23 01:51:32;;;;;;;6.38;2.95;;;15.30;99.90;;;;;;2585197;54;20799;31
2022/06/23 01:54:14;;;;;;;6.45;3.13;;;15.30;99.90;;;;;;2603723;46;20948;31
2022/06/23 01:56:53;;;;;;;5.40;3.70;;;15.20;99.90;;;;;;2585850;54;20937;31
2022/06/23 01:59:52;;;;;;;5.50;3.30;;;15.20;99.90;;;;;;2585354;54;20034;31
2022/06/23 02:02:24;;;;;;;6.38;3.00;;;15.10;99.90;;;;;;2585222;54;20063;31
2022/06/23 02:05:03;;;;;;;7.55;3.50;;;15.10;99.90;;;;;;2585595;54;21341;31
2022/06/23 02:07:39;;;;;;;6.30;2.95;;;15.00;99.90;;;;;;2585697;54;20895;31
2022/06/23 02:10:18;;;;;;;4.55;3.55;;;15.00;99.90;;;;;;2603056;46;20030;31
2022/06/23 02:12:56;;;;;;;4.65;2.97;;;14.90;99.90;;;;;;2585366;54;20085;31
2022/06/23 02:15:35;;;;;;;5.73;3.20;;;15.00;99.90;;;;;;2585204;54;20037;31
2022/06/23 02:18:16;;;;;;;6.15;3.10;;;14.90;99.90;;;;;;2603711;46;20978;31
2022/06/23 02:21:19;;;;;;;5.45;2.90;;;15.00;99.90;;;;;;2585335;54;21024;31
2022/06/23 02:23:51;;;;;;;6.38;3.63;;;15.00;99.90;;;;;;2585364;54;19941;31
2022/06/23 02:26:29;;;;;;;5.17;3.20;;;14.90;99.90;;;;;;2603904;46;20031;31
2022/06/23 02:29:05;;;;;;;6.40;3.10;;;14.90;99.90;;;;;;2585250;54;21167;31
2022/06/23 02:31:44;;;;;;;4.47;3.17;;;15.00;99.90;;;;;;2585119;54;20026;31
2022/06/23 02:34:20;;;;;;;4.60;2.93;;;14.90;99.90;;;;;;2585114;54;20045;31
2022/06/23 02:37:05;;;;;;;4.68;3.75;;;14.80;99.90;;;;;;2598670;46;20256;31
2022/06/23 02:39:40;;;;;;;5.85;3.55;;;14.80;99.90;;;;;;2586542;54;20772;31
2022/06/23 02:42:23;;;;;;;6.40;3.65;;;14.80;99.90;;;;;;2585460;54;20944;31
2022/06/23 02:45:22;;;;;;;5.10;3.30;;;14.70;99.90;;;;;;2585489;54;20884;31
2022/06/23 02:48:16;;;;;;;7.38;3.38;;;14.70;99.90;;;;;;2603477;47;21407;31
2022/06/23 02:51:02;;;;;;;6.38;2.97;;;14.70;99.90;;;;;;2585059;54;20037;31
2022/06/23 02:54:08;;;;;;;6.47;3.78;;;14.70;99.90;;;;;;2584762;54;20735;31
2022/06/23 02:56:50;;;;;;;6.60;3.23;;;14.70;99.90;;;;;;2585739;54;22633;31
2022/06/23 02:59:32;;;;;;;8.32;3.30;;;14.60;99.90;;;;;;2585986;54;21038;31
2022/06/23 03:02:14;;;;;;;4.13;3.05;;;14.60;99.90;;;;;;2586250;54;20030;31
2022/06/23 03:04:55;;;;;;;5.50;3.30;;;14.60;99.90;;;;;;2585200;54;20050;31
2022/06/23 03:07:31;;;;;;;5.50;3.23;;;14.50;99.90;;;;;;2585826;54;20039;31
2022/06/23 03:10:08;;;;;;;5.63;3.55;;;14.50;99.90;;;;;;2585855;54;20781;31
2022/06/23 03:12:45;;;;;;;8.02;4.07;;;14.50;99.90;;;;;;2585680;54;20045;31
2022/06/23 03:15:21;;;;;;;7.60;3.40;;;14.50;99.90;;;;;;2585984;54;21005;31
2022/06/23 03:17:56;;;;;;;8.23;3.67;;;14.60;99.90;;;;;;2585592;54;20094;31
2022/06/23 03:20:38;;;;;;;5.50;3.80;;;14.60;99.90;;;;;;2584910;54;20112;31
2022/06/23 03:23:18;;;;;;;5.35;3.60;;;14.60;99.90;;;;;;2585868;54;20756;31
2022/06/23 03:25:57;;;;;;;5.35;3.75;;;14.70;99.90;;;;;;2585886;54;21059;31
2022/06/23 03:28:34;;;;;;;8.63;4.05;;;14.70;99.90;;;;;;2585921;54;21111;31
2022/06/23 03:31:14;;;;;;;5.40;3.95;;;14.80;99.90;;;;;;2585741;54;20867;31
2022/06/23 03:33:55;;;;;;;8.00;4.40;;;15.00;99.90;;;;;;2585828;54;20811;31
2022/06/23 03:36:35;;;;;;;8.20;3.70;;;15.00;99.90;;;;;;2585415;54;20894;31
2022/06/23 03:42:10;;;;;;;6.40;4.30;;;15.20;99.90;;;;;;2585855;54;20034;31
2022/06/23 03:44:49;;;;;;;5.22;4.05;;;15.30;99.90;;;;;;2604236;46;20928;31
2022/06/23 03:47:28;;;;;;;6.47;3.95;;;15.50;99.90;;;;;;2586011;54;22454;31
2022/06/23 03:50:08;;;;;;;7.28;3.83;;;15.70;99.90;;;;;;2585379;54;20938;31
2022/06/23 03:52:47;;;;;;;10.70;3.90;;;15.80;99.90;;;;;;2585819;54;20840;31
2022/06/23 03:55:27;;;;;;;5.80;4.10;;;16.00;99.90;;;;;;2603983;46;20878;31
2022/06/23 03:58:01;;;;;;;6.10;4.30;;;16.10;99.90;;;;;;2585562;54;20063;31
2022/06/23 04:00:36;;;;;;;5.50;3.70;;;16.30;99.90;;;;;;2585863;54;19965;31
2022/06/23 04:03:21;;;;;;;5.85;3.70;;;16.50;99.90;;;;;;2585755;54;20905;31
2022/06/23 04:06:18;;;;;;;4.82;3.45;;;16.70;99.90;;;;;;2585696;54;20031;31
2022/06/23 04:09:21;;;;;;;7.20;4.15;;;16.90;99.90;;;;;;2585504;54;20034;31
2022/06/23 04:12:03;;;;;;;5.47;4.20;;;17.10;99.90;;;;;;2585660;54;20057;31
2022/06/23 04:14:54;;;;;;;7.65;4.15;;;17.30;99.90;;;;;;2585553;54;20036;31
2022/06/23 04:17:30;;;;;;;10.73;4.50;;;17.50;99.90;;;;;;2585717;54;20824;31
2022/06/23 04:20:12;;;;;;;12.98;4.63;;;17.60;99.90;;;;;;2585943;54;22461;31
2022/06/23 04:22:49;;;;;;;6.80;3.95;;;17.70;99.90;;;;;;2586059;54;20033;31
2022/06/23 04:25:28;;;;;;;7.55;4.50;;;17.90;99.90;;;;;;2585854;54;20027;31
2022/06/23 04:28:08;;;;;;;10.00;4.83;;;18.10;99.90;;;;;;2604300;46;20031;31
2022/06/23 04:30:42;;;;;;;10.52;4.60;;;18.30;99.90;;;;;;2584768;54;20042;31
2022/06/23 04:33:25;;;;;;;8.05;4.65;;;18.50;99.90;;;;;;2585600;54;20933;31
2022/06/23 04:36:02;;;;;;;8.20;4.10;;;18.70;99.90;;;;;;2585771;54;20060;31
2022/06/23 04:38:45;;;;;;;7.23;4.40;;;18.90;99.90;;;;;;2584712;54;21124;31
2022/06/23 04:41:21;;;;;;;9.73;4.00;;;19.10;99.90;;;;;;2584311;54;21148;31
2022/06/23 04:43:59;;;;;;;;;;;19.20;99.90;;;;;;2584843;54;20037;31
2022/06/23 04:46:41;;;;;;;8.15;4.43;;;19.40;99.90;;;;;;2584949;54;20815;31
2022/06/23 04:49:20;;;;;;;8.45;4.70;;;19.60;99.90;;;;;;2584925;54;20963;31
2022/06/23 04:51:56;;;;;;;5.55;3.40;;;19.80;99.90;;;;;;2584756;54;21012;31
2022/06/23 04:54:30;;;;;;;;;;;20.00;99.90;;;;;;2755127;31;21146;31
2022/06/23 04:57:07;;;;;;;8.35;4.18;;;20.20;99.90;;;;;;2603848;46;20772;31
2022/06/23 04:59:50;;;;;;;6.72;4.65;;;20.30;99.90;;;;;;2585667;54;20030;31
2022/06/23 05:02:32;;;;;;;6.30;3.60;;;20.50;99.90;;;;;;2585444;54;20026;31
2022/06/23 05:05:08;;;;;;;8.23;3.80;;;20.70;99.90;;;;;;2585459;54;20871;31
2022/06/23 05:07:43;;;;;;;;;;;21.00;99.90;;;;;;2585666;54;20026;31
2022/06/23 05:10:21;;;;;;;9.50;4.00;;;21.20;99.90;;;;;;2585688;54;19935;31
2022/06/23 05:12:59;;;;;;;6.05;3.60;;;21.40;99.90;;;;;;2584490;54;20055;31
2022/06/23 05:15:35;;;;;;;5.20;3.50;;;21.50;99.90;;;;;;2584624;54;20985;31
2022/06/23 05:18:24;;;;;;;10.45;4.50;;;21.70;99.90;;;;;;2584853;54;20928;31
2022/06/23 05:21:02;;;;;;;7.85;3.60;;;21.90;99.90;;;;;;2585280;54;20061;31
2022/06/23 05:23:41;;;;;;;7.95;4.70;;;22.10;99.90;;;;;;2603680;46;20062;31
2022/06/23 05:26:19;;;;;;;6.70;3.72;;;22.40;99.90;;;;;;2604020;46;20030;31
2022/06/23 05:28:53;;;;;;;10.10;3.42;;;22.70;99.90;;;;;;2585314;54;20026;31
2022/06/23 05:31:33;;;;;;;6.75;3.30;;;22.80;99.90;;;;;;2603482;46;20976;31
2022/06/23 05:34:14;;;;;;;5.70;3.20;;;23.00;99.90;;;;;;2585356;54;20089;31
2022/06/23 05:36:59;;;;;;;5.17;3.30;;;23.00;99.90;;;;;;2585222;54;20931;31
2022/06/23 05:39:38;;;;;;;9.60;3.55;;;23.30;99.90;;;;;;2603879;46;20032;31
2022/06/23 05:42:21;;;;;;;5.95;3.70;;;23.20;99.90;;;;;;2585265;54;20023;31
2022/06/23 05:45:01;;;;;;;6.90;2.95;;;23.50;99.90;;;;;;2584218;54;20032;31
2022/06/23 05:47:36;;;;;;;9.93;3.40;;;23.60;99.90;;;;;;2701634;39;22443;31
2022/06/23 05:50:22;;;;;;;10.43;3.57;;;23.70;99.90;;;;;;2585372;54;20030;31
2022/06/23 05:52:58;;;;;;;5.75;3.15;;;23.90;99.90;;;;;;2603842;46;21042;31
2022/06/23 05:55:37;;;;;;;8.00;3.00;;;24.00;99.90;;;;;;2584276;54;20023;31
2022/06/23 05:58:16;;;;;;;6.20;2.47;;;24.30;99.90;;;;;;2591633;46;22134;31
2022/06/23 06:00:54;;;;;;;6.85;2.20;;;24.60;99.90;;;;;;2585482;54;20974;31
2022/06/23 06:03:32;;;;;;;5.25;2.75;;;24.70;99.90;;;;;;2592609;46;20898;31
2022/06/23 06:06:15;;;;;;;3.80;2.60;;;24.90;99.90;;;;;;2584320;54;20030;31
2022/06/23 06:11:47;;;;;;;4.43;2.13;;;25.20;99.90;;;;;;2585314;54;21174;31
2022/06/23 06:14:36;;;;;;;5.85;2.30;;;25.40;99.90;;;;;;2585041;54;20026;31
2022/06/23 06:17:24;;;;;;;5.10;2.22;;;25.70;99.90;;;;;;2585015;54;20867;31
2022/06/23 06:20:09;;;;;;;6.47;2.45;;;25.70;99.90;;;;;;2584779;54;20909;31
2022/06/23 06:22:55;;;;;;;6.82;2.10;;;25.80;99.90;;;;;;2701602;39;21093;31
2022/06/23 06:25:33;;;;;;;6.40;1.67;;;26.00;99.90;;;;;;2702020;39;21031;31
2022/06/23 06:28:27;;;;;;;5.50;2.00;;;26.10;99.90;;;;;;2585418;54;20154;31
2022/06/23 06:31:02;;;;;;;8.70;2.20;;;26.20;99.90;;;;;;2585333;54;20077;31
2022/06/23 06:33:57;;;;;;;9.15;2.10;;;26.40;99.90;;;;;;2584838;54;20039;31
2022/06/23 06:36:36;;;;;;;8.77;2.53;;;26.50;99.90;;;;;;2585112;54;20793;31
2022/06/23 06:39:15;;;;;;;7.60;2.40;;;26.80;99.90;;;;;;2584172;54;20027;31
2022/06/23 06:41:52;;;;;;;7.90;2.35;;;26.90;99.90;;;;;;2585236;54;21226;31
2022/06/23 06:44:30;;;;;;;6.30;2.65;;;27.10;99.90;;;;;;2585353;54;21197;31
2022/06/23 06:47:07;;;;;;;4.90;2.50;;;27.20;99.90;;;;;;2585023;54;21007;31
2022/06/23 06:49:44;;;;;;;7.20;2.05;;;27.40;99.00;;;;;;2585076;54;20037;31
2022/06/23 06:52:22;;;;;;;5.20;2.10;;;27.70;98.70;;;;;;2583942;54;20024;31
2022/06/23 06:55:09;;;;;;;7.80;2.63;;;27.90;97.60;;;;;;2584869;54;20026;31
2022/06/23 06:57:43;;;;;;;;;;;28.00;97.50;;;;;;2584727;54;21139;31
2022/06/23 07:00:35;;;;;;;4.27;2.17;;;28.30;96.70;;;;;;2584767;47;20533;31
2022/06/23 07:03:13;;;;;;;5.10;1.73;;;28.50;95.50;;;;;;2584802;54;20026;31
2022/06/23 07:05:53;;;;;;;8.30;1.90;;;28.70;95.20;;;;;;2584200;54;20732;31
2022/06/23 07:08:31;;;;;;;8.65;2.28;;;28.90;94.80;;;;;;2584788;54;21048;31
2022/06/23 07:11:12;;;;;;;3.47;1.40;;;29.20;94.90;;;;;;2584911;54;20023;31
2022/06/23 07:13:55;;;;;;;6.40;1.90;;;29.40;93.60;;;;;;2602755;47;21751;31
2022/06/23 07:16:35;;;;;;;4.87;2.03;;;29.60;92.00;;;;;;2584469;54;21170;31
2022/06/23 07:19:17;;;;;;;6.15;1.85;;;29.50;91.20;;;;;;2589389;47;20764;31
2022/06/23 07:21:55;;;;;;;5.97;1.60;;;29.40;91.10;;;;;;2584556;54;20038;31
2022/06/23 07:24:39;;;;;;;5.18;1.60;;;29.50;90.20;;;;;;2584819;54;20958;31
2022/06/23 07:27:24;;;;;;;3.45;1.20;;;29.60;90.70;;;;;;2584621;54;20868;31
2022/06/23 07:30:03;;;;;;;7.75;1.65;;;29.70;89.80;;;;;;2603167;47;20923;31
2022/06/23 07:32:43;;;;;;;4.83;1.50;;;30.00;90.60;;;;;;2603091;47;20027;31
2022/06/23 07:35:29;;;;;;;4.30;1.52;;;30.10;89.20;;;;;;2584751;54;20034;31
2022/06/23 07:38:07;;;;;;;2.38;1.30;;;30.30;90.10;;;;;;2584877;54;20518;31
2022/06/23 07:40:46;;;;;;;7.18;1.38;;;30.50;88.60;;;;;;2590992;47;20166;31
2022/06/23 07:43:30;;;;;;;8.55;1.40;;;30.60;87.30;;;;;;2753347;31;21744;31
2022/06/23 07:46:07;;;;;;;3.47;1.20;;;30.80;86.30;;;;;;2585621;54;20054;31
2022/06/23 07:48:43;;;;;;;2.38;1.20;;;30.90;85.90;;;;;;2603956;46;20801;31
2022/06/23 07:51:32;;;;;;;6.22;1.25;;;30.90;84.60;;;;;;2585111;54;20053;31
2022/06/23 07:54:05;;;;;;;;;;;30.90;84.50;;;;;;2585698;54;20942;31
2022/06/23 07:56:40;;;;;;;5.87;1.20;;;31.00;83.90;;;;;;2603791;46;19946;31
2022/06/23 07:59:23;;;;;;;2.28;0.98;;;31.00;83.90;;;;;;2585278;54;21074;31
2022/06/23 08:01:59;;;;;;;4.35;1.33;;;31.20;82.40;;;;;;2585374;54;20037;31
2022/06/23 08:04:38;;;;;;;2.92;1.20;;;31.20;82.80;;;;;;2603925;46;20034;31
2022/06/23 08:07:12;;;;;;;5.57;0.90;;;31.30;80.00;;;;;;2585190;54;20084;31
2022/06/23 08:09:52;;;;;;;3.57;0.93;;;31.30;79.50;;;;;;2585509;54;20036;31
2022/06/23 08:18:13;;;;;;;2.47;0.85;;;31.20;77.50;;;;;;2585510;54;20772;31
2022/06/23 08:20:51;;;;;;;1.98;0.98;;;31.30;77.30;;;;;;2603552;46;21194;31
2022/06/23 08:23:26;;;;;;;6.28;1.10;;;31.40;76.70;;;;;;2584333;54;20861;31
2022/06/23 08:26:00;;;;;;;;;;;31.50;75.90;;;;;;2585732;54;20030;31
2022/06/23 08:28:34;;;;;;;4.60;1.00;;;31.40;75.50;;;;;;2604061;46;20806;31
2022/06/23 08:31:17;;;;;;;5.45;1.10;;;31.50;76.10;;;;;;2585145;54;20026;31
2022/06/23 08:34:13;;;;;;;3.40;0.90;;;31.50;77.10;;;;;;2683302;39;21595;31
2022/06/23 08:37:04;;;;;;;3.92;0.90;;;31.70;77.00;;;;;;2585440;54;20837;31
2022/06/23 08:39:51;;;;;;;3.38;1.08;;;32.00;78.90;;;;;;2585149;54;20947;31
2022/06/23 08:42:30;;;;;;;4.00;1.10;;;31.90;76.10;;;;;;2585072;54;20639;31
2022/06/23 08:45:15;;;;;;;3.20;0.95;;;31.90;75.90;;;;;;2584831;54;21611;31
2022/06/23 08:48:07;;;;;;;2.00;0.95;;;32.00;75.50;;;;;;2585458;54;20072;31
2022/06/23 08:50:44;;;;;;;1.67;0.98;;;31.90;75.50;;;;;;2585486;54;21213;31
2022/06/23 08:53:21;;;;;;;2.72;1.00;;;31.90;74.40;;;;;;2603320;46;20953;31
2022/06/23 08:55:57;;;;;;;2.23;0.83;;;32.00;75.50;;;;;;2585162;54;20037;31
2022/06/23 08:58:36;;;;;;;2.05;0.68;;;32.10;72.20;;;;;;2585223;54;20030;31
2022/06/23 09:01:16;;;;;;;1.15;0.70;;;32.30;71.90;;;;;;2585519;54;20026;31
2022/06/23 09:04:00;;;;;;;2.70;0.82;;;32.40;71.40;;;;;;2585586;54;20033;31
2022/06/23 09:06:49;;;;;;;4.57;1.00;;;32.60;70.70;;;;;;2603729;46;20026;31
2022/06/23 09:09:37;;;;;;;1.88;1.00;;;32.70;71.20;;;;;;2585607;54;20949;31
2022/06/23 09:15:51;;;;;;;2.10;1.00;;;32.50;69.50;;;;;;2585637;54;20923;31
2022/06/23 09:19:09;;;;;;;4.43;1.00;;;32.50;70.00;;;;;;2601712;46;20045;31
2022/06/23 09:22:06;;;;;;;1.85;0.70;;;32.50;69.90;;;;;;2585358;54;20033;31
2022/06/23 09:25:05;;;;;;;3.20;0.70;;;32.50;70.10;;;;;;2603685;46;20990;31
2022/06/23 09:27:46;;;;;;;2.45;0.85;;;32.50;69.50;;;;;;2585466;54;20792;31
2022/06/23 09:30:20;;;;;;;2.10;0.60;;;32.50;69.20;;;;;;2603823;46;20865;31
2022/06/23 09:36:16;;;;;;;4.78;1.33;;;32.40;69.40;;;;;;2683242;39;21705;31
2022/06/23 09:41:35;;;;;;;9.90;1.10;;;32.60;68.80;;;;;;2585597;54;20027;31
2022/06/23 09:47:45;;;;;;;3.15;1.15;;;32.80;66.90;;;;;;2585353;54;20130;31
2022/06/23 09:50:37;;;;;;;2.75;0.80;;;32.70;67.40;;;;;;2585270;54;20060;31
2022/06/23 09:53:38;;;;;;;2.58;0.80;;;32.70;68.00;;;;;;2584946;54;20055;31
2022/06/23 10:00:11;;;;;;;4.18;0.60;;;32.50;66.90;;;;;;2585447;54;20060;31
2022/06/23 10:02:57;;;;;;;3.07;1.03;;;32.50;66.60;;;;;;2585665;54;20796;31
2022/06/23 10:11:46;;;;;;;2.90;1.00;;;32.70;66.10;;;;;;2604092;46;20005;31
2022/06/23 10:14:49;;;;;;;1.57;0.67;;;32.60;65.80;;;;;;2603585;46;20058;31
2022/06/23 10:17:47;;;;;;;3.90;0.93;;;32.40;65.50;;;;;;2585006;54;20320;31
2022/06/23 10:20:29;;;;;;;3.55;0.80;;;32.20;67.20;;;;;;2585446;54;20906;31
2022/06/23 10:23:22;;;;;;;2.65;1.17;;;32.20;67.30;;;;;;2585399;54;20081;31
2022/06/23 10:26:24;;;;;;;1.75;0.60;;;32.10;66.80;;;;;;2753738;31;20648;31
2022/06/23 10:29:26;;;;;;;2.70;1.07;;;32.30;67.20;;;;;;2603581;46;20077;31
2022/06/23 10:32:18;;;;;;;3.30;0.90;;;32.40;66.50;;;;;;2585001;54;21354;31
2022/06/23 10:35:16;;;;;;;3.40;1.15;;;32.50;66.70;;;;;;2603298;46;20833;31
2022/06/23 10:38:07;;;;;;;3.60;1.10;;;32.40;66.10;;;;;;2603829;46;20946;31
2022/06/23 10:40:52;;;;;;;2.30;0.80;;;32.50;67.10;;;;;;2585442;54;21653;31
2022/06/23 10:43:40;;;;;;;5.28;1.00;;;32.30;65.80;;;;;;2585340;54;20033;31
2022/06/23 10:46:14;;;;;;;3.87;0.83;;;32.20;66.70;;;;;;2585240;54;19943;31
2022/06/23 10:49:10;;;;;;;3.57;1.20;;;32.10;66.10;;;;;;2585122;54;20027;31
2022/06/23 10:52:16;;;;;;;2.00;0.80;;;31.90;66.30;;;;;;2583841;54;20258;31
2022/06/23 10:58:43;;;;;;;2.30;1.00;;;31.40;65.80;;;;;;2585080;54;20270;31
2022/06/23 11:01:38;;;;;;;3.33;1.33;;;31.40;66.10;;;;;;2584735;54;20031;31
2022/06/23 11:07:43;;;;;;;3.70;0.70;;;31.40;67.20;;;;;;2603245;47;20065;31
2022/06/23 11:10:39;;;;;;;1.55;0.80;;;31.60;68.00;;;;;;2585029;54;20037;31
2022/06/23 11:13:13;;;;;;;3.50;1.30;;;31.70;66.60;;;;;;2603318;47;20051;31
2022/06/23 11:15:57;;;;;;;2.78;1.17;;;31.80;67.00;;;;;;2584287;54;21938;31
2022/06/23 11:18:42;;;;;;;3.40;0.93;;;31.90;66.20;;;;;;2604467;46;22483;31
2022/06/23 11:21:26;;;;;;;3.70;1.15;;;31.90;67.00;;;;;;2604430;46;21184;31
2022/06/23 11:24:16;;;;;;;3.77;1.00;;;32.00;66.50;;;;;;2585688;54;20326;31
2022/06/23 11:27:05;;;;;;;2.00;0.90;;;31.70;66.30;;;;;;2604784;46;20901;31
2022/06/23 11:30:07;;;;;;;2.72;1.25;;;31.60;67.00;;;;;;2585265;54;20947;31
2022/06/23 11:33:32;;;;;;;4.90;1.20;;;31.50;67.00;;;;;;2590677;46;20900;31
2022/06/23 11:36:30;;;;;;;4.10;1.15;;;31.30;66.90;;;;;;2585139;54;20946;31
2022/06/23 11:39:29;;;;;;;1.58;0.70;;;31.20;66.20;;;;;;2585608;54;21203;31
2022/06/23 11:42:42;;;;;;;3.65;1.20;;;31.20;66.60;;;;;;2604101;46;20146;31
2022/06/23 11:47:55;;;;;;;3.15;1.00;;;31.30;67.90;;;;;;2604022;46;20946;31
2022/06/23 11:50:40;;;;;;;4.47;1.10;;;31.30;67.60;;;;;;2585542;54;20049;31
2022/06/23 11:56:34;;;;;;;2.25;0.80;;;31.10;67.30;;;;;;2585650;54;21209;31
2022/06/23 11:59:20;;;;;;;2.00;0.90;;;31.00;68.10;;;;;;2584926;54;20982;31
2022/06/23 12:02:20;;;;;;;2.75;1.10;;;31.00;67.80;;;;;;2585592;54;20026;31
2022/06/23 12:05:34;;;;;;;1.77;1.17;;;31.10;68.30;;;;;;2584520;54;20745;31
2022/06/23 12:09:12;;;;;;;2.83;0.85;;;31.10;69.00;;;;;;2585875;54;19993;31
2022/06/23 12:14:35;;;;;;;4.37;1.17;;;31.00;67.80;;;;;;2603642;46;20926;31
2022/06/23 12:17:25;;;;;;;3.67;1.10;;;30.90;67.80;;;;;;2585247;54;21233;31
2022/06/23 12:26:02;;;;;;;4.32;1.08;;;30.90;67.90;;;;;;2603747;46;20809;31
2022/06/23 12:28:59;;;;;;;2.88;1.08;;;30.80;68.00;;;;;;2603703;46;19935;31
2022/06/23 12:31:50;;;;;;;3.65;1.70;;;30.80;67.70;;;;;;2585319;54;20032;31
2022/06/23 12:37:32;;;;;;;3.92;0.70;;;30.70;68.50;;;;;;2585246;54;20779;31
2022/06/23 12:40:17;;;;;;;4.28;1.20;;;30.60;67.70;;;;;;2585374;54;21225;31
2022/06/23 12:42:52;;;;;;;4.10;1.63;;;30.60;68.20;;;;;;2585007;54;20896;31
2022/06/23 12:45:50;;;;;;;2.63;0.75;;;30.60;68.40;;;;;;2585118;54;21122;31
2022/06/23 12:49:01;;;;;;;2.13;1.07;;;30.50;67.20;;;;;;2585525;54;20033;31
2022/06/23 12:51:46;;;;;;;2.40;0.90;;;30.50;68.10;;;;;;2585031;54;20253;31
2022/06/23 12:57:40;;;;;;;4.30;1.20;;;30.50;67.50;;;;;;2585348;54;20065;31
2022/06/23 13:00:19;;;;;;;2.22;0.80;;;30.60;69.00;;;;;;2585490;54;20234;31
2022/06/23 13:03:05;;;;;;;3.28;0.90;;;30.60;68.70;;;;;;2585273;54;20049;31
2022/06/23 13:05:51;;;;;;;2.15;1.02;;;30.60;68.60;;;;;;2585017;54;20934;31
2022/06/23 13:08:26;;;;;;;6.20;0.85;;;30.50;68.20;;;;;;2603740;46;20695;31
2022/06/23 13:11:17;;;;;;;2.33;1.10;;;30.40;69.30;;;;;;2584812;54;20034;31
2022/06/23 13:14:05;;;;;;;2.00;0.90;;;30.40;69.00;;;;;;2603796;46;20987;31
2022/06/23 13:16:43;;;;;;;3.78;1.23;;;30.40;68.80;;;;;;2585174;54;20046;31
2022/06/23 13:19:24;;;;;;;4.70;1.17;;;30.40;69.20;;;;;;2585095;54;20879;31
2022/06/23 13:22:09;;;;;;;4.95;1.10;;;30.50;68.50;;;;;;2603573;46;20789;31
2022/06/23 13:24:44;;;;;;;1.60;0.85;;;30.40;68.60;;;;;;2585608;54;20896;31
2022/06/23 13:27:19;;;;;;;2.85;0.95;;;30.40;69.00;;;;;;2683161;39;20493;31
2022/06/23 13:29:56;;;;;;;2.15;0.80;;;30.50;68.20;;;;;;2585121;54;20938;31
2022/06/23 13:32:32;;;;;;;2.88;0.98;;;30.40;68.20;;;;;;2603837;46;22462;31
2022/06/23 13:35:15;;;;;;;3.60;0.85;;;30.40;68.80;;;;;;2585482;54;20935;31
2022/06/23 13:37:53;;;;;;;4.75;1.30;;;30.40;68.60;;;;;;2585256;54;20026;31
2022/06/23 13:40:32;;;;;;;2.90;1.10;;;30.30;68.50;;;;;;2584917;54;20997;31
2022/06/23 13:43:09;;;;;;;1.95;0.60;;;30.30;68.10;;;;;;2585117;54;20891;31
2022/06/23 13:45:44;;;;;;;2.10;1.10;;;30.20;68.50;;;;;;2585243;54;20976;31
2022/06/23 13:48:19;;;;;;;3.17;1.10;;;30.20;68.70;;;;;;2585288;54;20026;31
2022/06/23 13:50:56;;;;;;;2.70;0.95;;;30.10;68.30;;;;;;2584966;54;20089;31
2022/06/23 13:53:36;;;;;;;4.05;1.00;;;30.10;68.90;;;;;;2584992;54;20786;31
2022/06/23 13:56:13;;;;;;;4.82;1.00;;;30.10;68.70;;;;;;2585128;54;20165;31
2022/06/23 13:58:51;;;;;;;2.08;1.10;;;30.00;68.30;;;;;;2585181;54;20137;31
2022/06/23 14:01:27;;;;;;;2.83;1.37;;;30.10;68.10;;;;;;2585314;54;20934;31
2022/06/23 14:04:02;;;;;;;3.53;0.83;;;30.00;68.40;;;;;;2603552;46;20034;31
2022/06/23 14:06:38;;;;;;;4.22;0.90;;;30.00;68.80;;;;;;2585135;54;21868;31
2022/06/23 14:09:16;;;;;;;3.28;0.70;;;30.00;68.20;;;;;;2585129;54;19935;31
2022/06/23 14:11:53;;;;;;;5.80;1.25;;;29.90;68.20;;;;;;2584907;54;20840;31
2022/06/23 14:14:30;;;;;;;2.20;0.90;;;29.90;67.80;;;;;;2585041;54;20033;31
2022/06/23 14:17:08;;;;;;;2.88;0.82;;;29.90;67.90;;;;;;2603243;46;20842;31
2022/06/23 14:19:45;;;;;;;3.20;1.30;;;29.90;68.00;;;;;;2585329;54;20838;31
2022/06/23 14:22:19;;;;;;;2.90;1.05;;;29.80;68.20;;;;;;2585051;54;20050;31
2022/06/23 14:24:57;;;;;;;5.05;1.13;;;29.80;67.90;;;;;;2584828;54;20623;31
2022/06/23 14:27:31;;;;;;;2.40;0.70;;;29.80;68.80;;;;;;2603524;46;19957;31
2022/06/23 14:30:07;;;;;;;1.90;0.70;;;29.70;68.40;;;;;;2771688;31;20695;31
2022/06/23 14:32:44;;;;;;;;;;;29.70;69.50;;;;;;2603806;46;20026;31
2022/06/23 14:35:20;;;;;;;5.70;0.70;;;29.70;69.10;;;;;;2585124;54;19934;31
2022/06/23 14:37:57;;;;;;;4.50;0.90;;;29.70;69.20;;;;;;2584891;54;20972;31
2022/06/23 14:40:38;;;;;;;5.27;1.27;;;29.70;68.70;;;;;;2584754;54;20031;31
2022/06/23 14:43:23;;;;;;;3.47;1.60;;;29.70;68.90;;;;;;2585076;54;20870;31
2022/06/23 14:46:04;;;;;;;5.35;0.95;;;29.70;68.60;;;;;;2585142;54;19989;31
2022/06/23 14:49:13;;;;;;;2.35;0.95;;;29.70;68.40;;;;;;2585188;54;20935;31
2022/06/23 14:51:48;;;;;;;2.03;0.90;;;29.70;68.10;;;;;;2585306;54;20026;31
2022/06/23 14:54:26;;;;;;;4.57;1.20;;;29.70;68.60;;;;;;2604049;46;21919;31
2022/06/23 14:57:05;;;;;;;5.65;1.17;;;29.70;68.80;;;;;;2585628;54;20105;31
2022/06/23 14:59:40;;;;;;;4.65;1.20;;;29.70;68.80;;;;;;2585776;54;21886;31
2022/06/23 15:02:20;;;;;;;2.70;0.97;;;29.70;68.50;;;;;;2603947;46;21008;31
2022/06/23 15:04:55;;;;;;;3.33;0.97;;;29.70;68.20;;;;;;2585597;54;21175;31
2022/06/23 15:07:29;;;;;;;2.40;1.20;;;29.70;68.80;;;;;;2603781;46;20239;31
2022/06/23 15:10:05;;;;;;;3.60;1.50;;;29.60;68.90;;;;;;2586003;54;20291;31
2022/06/23 15:12:46;;;;;;;4.57;1.80;;;29.50;68.90;;;;;;2604108;46;20933;31
2022/06/23 15:15:23;;;;;;;5.55;1.27;;;29.50;69.40;;;;;;2585585;54;20077;31
2022/06/23 15:17:59;;;;;;;4.05;1.10;;;29.50;68.90;;;;;;2683766;39;21110;31